Terminal Aerodrome Forecast
Issued by NWS King Salmon, AK

Home | Current Version | Previous Version | Text Only | Print | Product List | Glossary On
Versions: 1 2 3 4 5 6 7 8 9 10 11 12 13 14 15 16 17 18 19 20 21 22 23 24 25 26 27 28 29 30 31 32 33 34 35 36 37 38 39 40 41 42 43 44 45 46 47 48 49
000
FTAK31 PANC 061736
TAFAKN
TAF
PAKN 061736Z 0618/0718 16009KT 4SM BR OVC003
      TEMPO 0618/0621 P6SM NSW SCT003 BKN035
     FM062100 17014G20KT P6SM BKN035
     FM070000 17015G22KT 6SM -RA BR SCT015 OVC025
     FM070300 18018G28KT 3SM -RA BR SCT008 BKN015
     FM070900 20012G18KT 5SM -RASN BR BKN008
     FM071200 22012KT P6SM VCSH SCT012 BKN020=

USA.gov is the U.S. government's official web portal to all federal, state and local government web resources and services.